Time;durP1;ratioP1;P1;durP2;ratioP2;P2;SDS_P1;SDS_P2;PMS_P1;PMS_P2;Temp;Humidity;BMP_temperature;BMP_pressure;BME280_temperature;BME280_humidity;BME280_pressure;Samples;Min_cycle;Max_cycle;Signal;HPM_P1;HPM_P2
2023/10/08 00:02:10;;;;;;;2.25;0.82;;;19.00;1.00;;;;;;6120649;23;20018;-69
2023/10/08 00:04:38;;;;;;;2.10;0.75;;;19.50;1.00;;;;;;6120071;23;20054;-68
2023/10/08 00:07:07;;;;;;;2.85;1.08;;;18.90;1.00;;;;;;6121412;23;20042;-69
2023/10/08 00:09:36;;;;;;;1.88;0.80;;;19.00;1.00;;;;;;6096929;23;20010;-69
2023/10/08 00:12:03;;;;;;;3.33;0.90;;;19.00;99.90;;;;;;6122177;23;20077;-69
2023/10/08 00:14:29;;;;;;;2.65;0.90;;;19.10;1.00;;;;;;6097328;23;20017;-69
2023/10/08 00:16:55;;;;;;;2.58;1.20;;;19.00;1.00;;;;;;6122488;23;20026;-69
2023/10/08 00:19:21;;;;;;;2.67;0.90;;;18.90;99.90;;;;;;6121566;23;20018;-69
2023/10/08 00:21:48;;;;;;;1.55;0.70;;;19.10;99.90;;;;;;6122007;23;20013;-68
2023/10/08 00:24:15;;;;;;;2.47;0.82;;;19.30;99.90;;;;;;6122242;23;20149;-69
2023/10/08 00:26:41;;;;;;;2.70;1.00;;;19.20;99.90;;;;;;6121977;23;20491;-68
2023/10/08 00:29:21;;;;;;;2.47;0.75;;;18.90;99.90;;;;;;6123371;23;20351;-69
2023/10/08 00:31:49;;;;;;;2.95;0.90;;;19.20;99.90;;;;;;6097292;23;20029;-69
2023/10/08 00:34:17;;;;;;;1.58;0.70;;;21.30;99.90;;;;;;6073794;23;20022;-69
2023/10/08 00:36:48;;;;;;;2.83;0.80;;;18.90;99.90;;;;;;6123771;23;20009;-68
2023/10/08 00:39:22;;;;;;;2.25;0.70;;;19.20;99.90;;;;;;6097595;23;20014;-68
2023/10/08 00:41:54;;;;;;;2.20;0.70;;;19.10;99.90;;;;;;6123742;23;20045;-69
2023/10/08 00:44:23;;;;;;;2.20;0.70;;;19.10;99.90;;;;;;6123613;23;20487;-69
2023/10/08 00:46:51;;;;;;;1.98;0.70;;;19.00;99.90;;;;;;6123019;23;20175;-69
2023/10/08 00:55:07;;;;;;;1.92;0.70;;;19.10;99.90;;;;;;6092106;23;20026;-68
2023/10/08 00:57:37;;;;;;;2.65;0.90;;;18.90;1.00;;;;;;6123327;23;20033;-68
2023/10/08 01:00:06;;;;;;;2.67;0.80;;;19.00;1.00;;;;;;6122644;23;20056;-69
2023/10/08 01:05:25;;;;;;;2.47;0.80;;;19.20;1.00;;;;;;6096491;23;20022;-69
2023/10/08 01:07:52;;;;;;;2.78;0.90;;;19.20;1.00;;;;;;6096319;23;20010;-68
2023/10/08 01:10:24;;;;;;;4.15;0.82;;;19.10;1.00;;;;;;6122074;23;20340;-68
2023/10/08 01:13:04;;;;;;;2.72;0.95;;;18.20;1.00;;;;;;6096642;23;20021;-68
2023/10/08 01:15:30;;;;;;;2.08;0.70;;;18.40;1.00;;;;;;6097163;23;20416;-68
2023/10/08 01:18:04;;;;;;;1.90;0.80;;;18.70;1.00;;;;;;6072683;23;20348;-69
2023/10/08 01:20:33;;;;;;;3.33;0.90;;;18.90;1.00;;;;;;6097063;23;20309;-68
2023/10/08 01:23:03;;;;;;;3.38;0.80;;;18.80;99.90;;;;;;6096906;23;20025;-68
2023/10/08 01:25:30;;;;;;;2.17;0.70;;;19.00;99.90;;;;;;6097558;23;20018;-68
2023/10/08 01:28:00;;;;;;;2.35;0.80;;;18.80;99.90;;;;;;6096309;23;20088;-68
2023/10/08 01:30:26;;;;;;;2.50;0.90;;;19.30;99.90;;;;;;6096421;23;20010;-68
2023/10/08 01:32:52;;;;;;;2.33;0.80;;;19.00;99.90;;;;;;6123037;23;20013;-68
2023/10/08 01:35:23;;;;;;;4.25;1.30;;;19.00;99.90;;;;;;6123128;23;20522;-69
2023/10/08 01:37:50;;;;;;;2.47;0.90;;;19.10;99.90;;;;;;6072761;23;20473;-68
2023/10/08 01:40:17;;;;;;;3.42;0.70;;;18.80;99.90;;;;;;6122024;23;20025;-68
2023/10/08 01:42:43;;;;;;;3.45;0.80;;;18.70;99.90;;;;;;6122801;23;20581;-68
2023/10/08 01:45:12;;;;;;;2.38;0.73;;;18.80;99.90;;;;;;6123129;23;20014;-68
2023/10/08 01:47:40;;;;;;;2.83;0.80;;;18.70;99.90;;;;;;6096385;23;20045;-68
2023/10/08 01:50:18;;;;;;;4.80;0.80;;;19.00;99.90;;;;;;6096753;23;20045;-68
2023/10/08 01:52:46;;;;;;;5.07;0.90;;;18.60;99.90;;;;;;6097480;23;20026;-68
2023/10/08 01:55:17;;;;;;;2.72;0.75;;;19.10;99.90;;;;;;6122000;23;20053;-68
2023/10/08 01:57:43;;;;;;;2.40;0.75;;;18.70;99.90;;;;;;6121343;23;20021;-68
2023/10/08 02:00:09;;;;;;;3.50;0.80;;;18.80;99.90;;;;;;6095608;23;20010;-68
2023/10/08 02:02:40;;;;;;;2.17;0.70;;;18.90;99.90;;;;;;6096263;23;20021;-68
2023/10/08 02:05:06;;;;;;;2.05;0.77;;;19.30;99.90;;;;;;6096365;23;20408;-68
2023/10/08 02:07:33;;;;;;;4.18;1.00;;;18.80;99.90;;;;;;6122354;23;20478;-68
2023/10/08 02:09:59;;;;;;;3.50;0.82;;;19.30;99.90;;;;;;6095584;23;20014;-68
2023/10/08 02:12:25;;;;;;;2.45;0.80;;;18.80;99.90;;;;;;6121256;23;20333;-68
2023/10/08 02:14:51;;;;;;;3.22;0.80;;;18.90;99.90;;;;;;6072363;23;20363;-68
2023/10/08 02:17:17;;;;;;;1.67;0.85;;;19.40;99.90;;;;;;6093782;23;20018;-68
2023/10/08 02:19:43;;;;;;;2.72;0.85;;;19.20;99.90;;;;;;6093750;23;20450;-68
2023/10/08 02:22:12;;;;;;;4.30;0.88;;;18.00;99.90;;;;;;6121367;23;20060;-68
2023/10/08 02:24:38;;;;;;;1.75;0.60;;;18.20;99.90;;;;;;6122004;23;20328;-68
2023/10/08 02:27:03;;;;;;;4.30;0.95;;;18.40;99.90;;;;;;6120268;23;20018;-68
2023/10/08 02:29:30;;;;;;;2.75;1.00;;;19.10;99.90;;;;;;6093689;23;20014;-68
2023/10/08 02:31:59;;;;;;;2.15;0.93;;;19.00;99.90;;;;;;6120826;23;20092;-68
2023/10/08 02:34:28;;;;;;;3.15;0.90;;;18.50;99.90;;;;;;6122085;23;20394;-68
2023/10/08 02:36:55;;;;;;;2.70;0.88;;;19.00;99.90;;;;;;6094863;23;20014;-68
2023/10/08 02:39:26;;;;;;;3.72;0.88;;;18.30;99.90;;;;;;6094328;23;20071;-69
2023/10/08 02:41:56;;;;;;;3.08;1.00;;;18.40;99.90;;;;;;6095041;23;20093;-68
2023/10/08 02:44:22;;;;;;;2.78;0.80;;;18.50;99.90;;;;;;6093621;23;20018;-68
2023/10/08 02:46:49;;;;;;;3.85;0.95;;;17.90;99.90;;;;;;6094721;23;20057;-68
2023/10/08 02:49:22;;;;;;;3.38;0.88;;;18.80;99.90;;;;;;6119708;23;20472;-69
2023/10/08 02:51:53;;;;;;;2.20;0.70;;;18.00;99.90;;;;;;6094853;23;20460;-68
2023/10/08 02:54:23;;;;;;;4.03;0.98;;;19.00;99.90;;;;;;6071315;23;20025;-68
2023/10/08 02:56:57;;;;;;;4.55;1.00;;;18.60;99.90;;;;;;6094827;23;20527;-68
2023/10/08 02:59:24;;;;;;;5.55;1.10;;;18.70;99.90;;;;;;6120755;23;20045;-69
2023/10/08 03:01:55;;;;;;;3.70;0.90;;;19.10;99.90;;;;;;6094584;23;20456;-68
2023/10/08 03:04:22;;;;;;;4.03;0.70;;;18.80;99.90;;;;;;6095903;23;20041;-69
2023/10/08 03:06:54;;;;;;;6.72;1.00;;;19.00;99.90;;;;;;6071013;23;20006;-68
2023/10/08 03:09:23;;;;;;;3.92;1.02;;;18.30;99.90;;;;;;6120319;23;20053;-68
2023/10/08 03:11:50;;;;;;;3.92;1.00;;;18.20;99.90;;;;;;6070616;23;20459;-68
2023/10/08 03:14:22;;;;;;;3.60;0.90;;;18.70;99.90;;;;;;6121012;23;20017;-68
2023/10/08 03:16:52;;;;;;;3.70;1.02;;;18.70;99.90;;;;;;6121190;23;20017;-68
2023/10/08 03:19:20;;;;;;;3.88;1.00;;;18.20;99.90;;;;;;6120922;23;20025;-68
2023/10/08 03:21:56;;;;;;;3.75;0.93;;;18.10;99.90;;;;;;6095078;23;20372;-68
2023/10/08 03:24:37;;;;;;;4.00;1.27;;;18.60;99.90;;;;;;6070682;23;20021;-68
2023/10/08 03:27:20;;;;;;;2.95;1.10;;;18.90;99.90;;;;;;6094504;23;20021;-68
2023/10/08 03:29:46;;;;;;;4.20;1.02;;;18.70;99.90;;;;;;6094361;23;20018;-68
2023/10/08 03:32:15;;;;;;;3.25;0.98;;;19.00;99.90;;;;;;6094505;23;20010;-68
2023/10/08 03:34:54;;;;;;;4.25;1.08;;;18.20;99.90;;;;;;6121587;23;20021;-69
2023/10/08 03:37:29;;;;;;;2.70;0.77;;;18.50;99.90;;;;;;6121193;23;20089;-68
2023/10/08 03:42:41;;;;;;;3.33;1.10;;;18.60;99.90;;;;;;6096625;23;20022;-68
2023/10/08 03:45:11;;;;;;;4.45;1.20;;;18.60;99.90;;;;;;6096070;23;20515;-68
2023/10/08 03:47:38;;;;;;;4.28;1.02;;;18.00;99.90;;;;;;6096610;23;20042;-68
2023/10/08 03:50:10;;;;;;;6.88;1.00;;;17.80;99.90;;;;;;6122346;23;20010;-69
2023/10/08 03:52:42;;;;;;;4.63;1.20;;;18.00;99.90;;;;;;6072320;23;20428;-68
2023/10/08 03:55:21;;;;;;;4.65;0.90;;;18.30;99.90;;;;;;6097349;23;20471;-68
2023/10/08 03:57:56;;;;;;;3.70;1.10;;;17.80;99.90;;;;;;6095986;23;20463;-68
2023/10/08 04:00:28;;;;;;;4.68;1.23;;;18.60;99.90;;;;;;6096177;23;20021;-68
2023/10/08 04:02:55;;;;;;;5.35;1.05;;;16.20;99.90;;;;;;6096173;23;20041;-68
2023/10/08 04:05:27;;;;;;;4.72;1.05;;;18.60;99.90;;;;;;6122325;23;20523;-68
2023/10/08 04:13:09;;;;;;;3.13;0.90;;;18.90;99.90;;;;;;6097258;23;20077;-69
2023/10/08 04:15:41;;;;;;;6.82;2.00;;;18.60;99.90;;;;;;6124115;23;20013;-69
2023/10/08 04:18:08;;;;;;;4.32;1.23;;;17.90;99.90;;;;;;6096116;23;20069;-68
2023/10/08 04:20:38;;;;;;;3.17;1.08;;;18.80;99.90;;;;;;6096883;23;20018;-68
2023/10/08 04:23:20;;;;;;;5.60;1.30;;;18.60;99.90;;;;;;6097807;23;20018;-68
2023/10/08 04:25:53;;;;;;;6.82;1.13;;;18.60;99.90;;;;;;6123797;23;20010;-68
2023/10/08 04:28:20;;;;;;;7.85;1.20;;;18.60;99.90;;;;;;6096703;23;20018;-68
2023/10/08 04:30:53;;;;;;;4.75;1.10;;;18.20;99.90;;;;;;6096787;23;20086;-68
2023/10/08 04:33:19;;;;;;;6.97;1.70;;;18.80;99.90;;;;;;6096953;23;20020;-69
2023/10/08 04:35:48;;;;;;;5.90;1.23;;;18.70;99.90;;;;;;6097042;23;20038;-68
2023/10/08 04:38:17;;;;;;;5.20;1.35;;;17.70;99.90;;;;;;6072491;23;20423;-68
2023/10/08 04:40:52;;;;;;;5.85;1.30;;;18.70;99.90;;;;;;6072405;23;20089;-68
2023/10/08 04:43:27;;;;;;;6.50;1.63;;;18.90;99.90;;;;;;6096472;23;20021;-68
2023/10/08 04:45:57;;;;;;;4.55;1.20;;;19.10;99.90;;;;;;6122910;23;20014;-68
2023/10/08 04:48:31;;;;;;;5.38;1.23;;;17.80;99.90;;;;;;6096926;23;20056;-68
2023/10/08 04:51:01;;;;;;;7.82;1.35;;;18.30;99.90;;;;;;6095764;23;20014;-68
2023/10/08 04:53:36;;;;;;;4.28;1.10;;;18.10;99.90;;;;;;6120230;23;20475;-68
2023/10/08 04:56:13;;;;;;;5.30;1.20;;;18.60;99.90;;;;;;6095545;23;20333;-68
2023/10/08 04:58:46;;;;;;;5.47;1.13;;;18.60;99.90;;;;;;6072446;23;20017;-68
2023/10/08 05:25:08;;;;;;;4.75;1.30;;;18.80;99.90;;;;;;6094453;23;20093;-68
2023/10/08 05:57:14;;;;;;;4.90;1.20;;;17.80;99.90;;;;;;6118930;23;20030;-69
2023/10/08 06:05:33;;;;;;;5.53;1.60;;;18.70;99.90;;;;;;6122780;23;20029;-68
2023/10/08 06:13:09;;;;;;;4.70;1.30;;;18.60;99.90;;;;;;6119592;23;20022;-68
2023/10/08 06:18:13;;;;;;;5.95;1.30;;;18.90;99.90;;;;;;6120467;23;20018;-68
2023/10/08 06:20:42;;;;;;;5.60;1.50;;;17.90;99.90;;;;;;6124412;23;20380;-68
2023/10/08 06:23:09;;;;;;;6.32;1.60;;;17.70;99.90;;;;;;6118117;23;20089;-68
2023/10/08 06:25:44;;;;;;;8.52;1.42;;;18.30;99.90;;;;;;6119285;23;20026;-68
2023/10/08 06:28:11;;;;;;;4.72;1.42;;;18.90;99.90;;;;;;6117559;23;20018;-68
2023/10/08 06:30:40;;;;;;;4.93;1.42;;;17.90;99.90;;;;;;6119266;23;20020;-68
2023/10/08 06:33:07;;;;;;;7.88;2.03;;;17.60;99.90;;;;;;6119758;23;20018;-68
2023/10/08 06:35:38;;;;;;;7.07;1.50;;;18.20;99.90;;;;;;6123491;23;20010;-68
2023/10/08 06:38:09;;;;;;;6.40;1.27;;;18.70;99.90;;;;;;6097196;23;20018;-68
2023/10/08 06:40:40;;;;;;;7.10;1.50;;;17.90;99.90;;;;;;6121079;23;20065;-68
2023/10/08 06:43:16;;;;;;;5.07;1.20;;;18.70;99.90;;;;;;6118217;23;20010;-68
2023/10/08 06:45:44;;;;;;;8.23;1.40;;;18.30;99.90;;;;;;6122177;23;20018;-68
2023/10/08 06:48:17;;;;;;;5.10;1.20;;;17.60;99.90;;;;;;6070945;23;20093;-68
2023/10/08 06:50:47;;;;;;;7.50;2.13;;;18.10;99.90;;;;;;6071636;23;20321;-68
2023/10/08 06:53:18;;;;;;;5.75;1.17;;;18.50;99.90;;;;;;6122797;23;20014;-68
2023/10/08 06:55:44;;;;;;;5.57;1.60;;;17.50;99.90;;;;;;6123072;23;20006;-68
2023/10/08 06:58:14;;;;;;;6.97;1.42;;;17.70;99.90;;;;;;6096231;23;20064;-67
2023/10/08 07:00:46;;;;;;;7.28;2.00;;;18.80;99.90;;;;;;6096958;23;20325;-68
2023/10/08 07:03:15;;;;;;;11.43;2.33;;;17.90;99.90;;;;;;6121842;23;20021;-68
2023/10/08 07:05:57;;;;;;;12.40;3.28;;;18.80;99.90;;;;;;6071644;23;20018;-68
2023/10/08 07:08:24;;;;;;;11.30;2.97;;;18.80;99.90;;;;;;6123056;23;20021;-69
2023/10/08 07:10:51;;;;;;;13.30;4.30;;;16.00;99.90;;;;;;6096588;23;20020;-69
2023/10/08 07:13:19;;;;;;;12.90;4.03;;;18.50;99.90;;;;;;6095878;23;20459;-69
2023/10/08 07:15:45;;;;;;;11.00;3.88;;;18.00;99.90;;;;;;6095695;23;20558;-69
2023/10/08 07:18:19;;;;;;;13.90;4.25;;;18.50;99.90;;;;;;6093547;23;20045;-69
2023/10/08 07:20:45;;;;;;;29.23;7.70;;;17.60;99.90;;;;;;6096135;23;20096;-69
2023/10/08 07:23:24;;;;;;;21.70;6.20;;;18.50;99.90;;;;;;6118718;23;20014;-69
2023/10/08 07:26:13;;;;;;;16.50;4.90;;;18.60;99.90;;;;;;6095375;23;20050;-69
2023/10/08 07:28:42;;;;;;;16.45;4.18;;;18.20;99.90;;;;;;6094869;23;20014;-69
2023/10/08 07:31:17;;;;;;;19.60;4.72;;;18.70;99.90;;;;;;6093831;23;20029;-69
2023/10/08 07:33:44;;;;;;;13.05;4.22;;;17.70;99.90;;;;;;6109930;23;20010;-68
2023/10/08 07:36:14;;;;;;;14.10;4.07;;;18.70;99.90;;;;;;6118704;23;20018;-69
2023/10/08 07:38:43;;;;;;;15.70;4.43;;;19.00;99.90;;;;;;6120411;23;20022;-68
2023/10/08 07:41:14;;;;;;;17.65;5.68;;;18.40;99.90;;;;;;6119760;23;20018;-68
2023/10/08 07:43:44;;;;;;;18.42;4.80;;;17.80;99.90;;;;;;6120273;23;20355;-68
2023/10/08 07:46:10;;;;;;;18.02;5.07;;;18.80;99.90;;;;;;6121144;23;20093;-69
2023/10/08 07:48:42;;;;;;;14.75;4.65;;;18.30;99.90;;;;;;6118942;23;20383;-68
2023/10/08 07:51:08;;;;;;;16.27;4.60;;;18.50;99.90;;;;;;6095845;23;20455;-68
2023/10/08 07:53:41;;;;;;;17.58;5.78;;;18.60;99.90;;;;;;6119665;23;20014;-68
2023/10/08 07:56:08;;;;;;;10.07;3.60;;;18.50;99.90;;;;;;6120789;23;20021;-69
2023/10/08 07:58:38;;;;;;;12.10;3.58;;;18.60;99.90;;;;;;6119809;23;20452;-69
2023/10/08 08:01:13;;;;;;;11.93;3.35;;;18.70;99.90;;;;;;6119661;23;20100;-68
2023/10/08 08:03:41;;;;;;;12.05;3.42;;;18.80;99.90;;;;;;6120507;23;20511;-69
2023/10/08 08:06:08;;;;;;;9.00;3.35;;;18.90;99.90;;;;;;6118956;23;20009;-68
2023/10/08 08:08:36;;;;;;;15.88;4.15;;;18.90;99.90;;;;;;6118850;23;20018;-68
2023/10/08 08:11:05;;;;;;;12.88;3.83;;;18.50;99.90;;;;;;6120140;23;20355;-68
2023/10/08 08:13:33;;;;;;;13.90;3.70;;;19.00;99.90;;;;;;6118647;23;20025;-68
2023/10/08 08:16:09;;;;;;;10.25;2.97;;;18.70;99.90;;;;;;6096637;23;20017;-68
2023/10/08 08:18:37;;;;;;;8.82;2.97;;;18.20;99.90;;;;;;6121587;23;20018;-69
2023/10/08 08:21:03;;;;;;;10.70;2.55;;;18.50;80.70;;;;;;6122138;23;20010;-68
2023/10/08 08:23:30;;;;;;;8.63;2.70;;;18.50;86.40;;;;;;6119836;23;20010;-69
2023/10/08 08:26:07;;;;;;;10.07;2.65;;;19.00;78.00;;;;;;6119497;23;20022;-68
2023/10/08 08:28:33;;;;;;;12.20;3.70;;;18.70;72.10;;;;;;6120831;23;20073;-69
2023/10/08 08:31:13;;;;;;;10.18;2.63;;;18.50;85.20;;;;;;6121920;23;20014;-69
2023/10/08 08:33:59;;;;;;;7.95;2.33;;;18.30;94.10;;;;;;6123488;23;20021;-69
2023/10/08 08:36:29;;;;;;;7.38;2.20;;;18.30;99.90;;;;;;6125642;23;20089;-69
2023/10/08 08:38:56;;;;;;;14.98;3.42;;;18.60;92.20;;;;;;6121926;23;20046;-69
2023/10/08 08:41:23;;;;;;;7.63;2.17;;;18.70;98.00;;;;;;6121801;23;20018;-69
2023/10/08 08:43:58;;;;;;;7.68;2.35;;;18.10;93.90;;;;;;6122247;23;20018;-69
2023/10/08 08:46:43;;;;;;;8.90;2.28;;;17.80;74.70;;;;;;6121801;23;20036;-69
2023/10/08 08:49:09;;;;;;;7.30;2.72;;;19.00;99.90;;;;;;6073714;23;20021;-69
2023/10/08 08:51:35;;;;;;;9.73;2.63;;;18.10;99.90;;;;;;6121285;23;20010;-69
2023/10/08 08:54:06;;;;;;;6.10;2.00;;;18.50;99.90;;;;;;6122549;23;20033;-69
2023/10/08 08:56:38;;;;;;;7.30;2.22;;;18.50;99.90;;;;;;6097435;23;20022;-69
2023/10/08 08:59:17;;;;;;;7.45;2.30;;;18.40;99.90;;;;;;6121407;23;20014;-69
2023/10/08 09:01:44;;;;;;;8.35;2.35;;;18.80;99.90;;;;;;6121745;23;20025;-69
2023/10/08 09:04:10;;;;;;;8.23;2.10;;;17.80;99.90;;;;;;6121917;23;20072;-69
2023/10/08 09:06:40;;;;;;;6.47;1.92;;;18.30;99.90;;;;;;6121818;23;20052;-71
2023/10/08 09:09:22;;;;;;;6.35;2.15;;;18.80;99.90;;;;;;6121884;23;20052;-70
2023/10/08 09:11:52;;;;;;;6.47;2.08;;;19.10;99.90;;;;;;6122318;23;20010;-69
2023/10/08 09:14:22;;;;;;;5.65;1.60;;;18.60;99.90;;;;;;6122231;23;20041;-69
2023/10/08 09:16:49;;;;;;;5.55;1.60;;;18.70;99.90;;;;;;6122005;23;20514;-69
2023/10/08 09:19:18;;;;;;;7.28;1.95;;;18.70;99.90;;;;;;6121678;23;20049;-69
2023/10/08 09:22:04;;;;;;;6.70;1.98;;;18.60;99.90;;;;;;6122031;23;20018;-69
2023/10/08 09:24:36;;;;;;;6.47;2.05;;;18.80;99.90;;;;;;6121271;23;20014;-69
2023/10/08 09:27:03;;;;;;;6.20;1.67;;;18.70;99.90;;;;;;6122421;23;20021;-69
2023/10/08 09:29:29;;;;;;;5.45;1.67;;;19.00;99.90;;;;;;6121132;23;20014;-69
2023/10/08 09:31:59;;;;;;;5.75;1.70;;;18.90;99.90;;;;;;6123836;23;20014;-69
2023/10/08 09:34:30;;;;;;;6.93;1.48;;;18.70;99.90;;;;;;6121177;23;20054;-69
2023/10/08 09:36:59;;;;;;;4.63;1.30;;;18.90;99.90;;;;;;6124041;23;20025;-69
2023/10/08 09:39:28;;;;;;;7.40;1.73;;;18.80;99.90;;;;;;6122348;23;20056;-69
2023/10/08 09:41:55;;;;;;;5.57;1.40;;;18.70;99.90;;;;;;6120518;23;20033;-69
2023/10/08 09:44:26;;;;;;;6.75;1.50;;;18.70;99.90;;;;;;6121643;23;20092;-69
2023/10/08 09:47:04;;;;;;;5.50;1.30;;;18.70;99.90;;;;;;6096079;23;20010;-70
2023/10/08 09:49:44;;;;;;;5.57;1.60;;;17.80;99.90;;;;;;6122718;23;20057;-70
2023/10/08 09:52:10;;;;;;;8.25;1.90;;;18.80;99.90;;;;;;6122614;23;20014;-70
2023/10/08 09:54:59;;;;;;;7.00;1.50;;;18.80;99.90;;;;;;6119429;23;20028;-70
2023/10/08 09:57:27;;;;;;;6.03;1.48;;;18.30;99.90;;;;;;6121164;23;20100;-69
2023/10/08 09:59:53;;;;;;;5.57;1.40;;;18.50;99.90;;;;;;6118244;23;20014;-70
2023/10/08 10:02:22;;;;;;;6.80;1.63;;;19.10;99.90;;;;;;6120253;23;20451;-70
2023/10/08 10:04:51;;;;;;;4.78;1.30;;;18.20;99.90;;;;;;6094863;23;20013;-69
2023/10/08 10:07:16;;;;;;;6.63;1.35;;;18.50;99.90;;;;;;6121371;23;20348;-69
2023/10/08 10:09:46;;;;;;;7.75;2.00;;;18.80;99.90;;;;;;6123718;23;20013;-70
2023/10/08 10:12:17;;;;;;;6.32;1.42;;;18.90;99.90;;;;;;6121709;23;20006;-70
2023/10/08 10:14:45;;;;;;;7.15;1.80;;;18.60;99.90;;;;;;6121563;23;20222;-70
2023/10/08 10:17:18;;;;;;;4.82;1.20;;;18.80;99.90;;;;;;6123694;23;20009;-69
2023/10/08 10:19:45;;;;;;;3.63;1.08;;;18.90;99.90;;;;;;6121469;23;20018;-70
2023/10/08 10:22:27;;;;;;;7.68;1.38;;;18.80;99.90;;;;;;6096785;23;20014;-70
2023/10/08 10:24:53;;;;;;;7.60;1.63;;;19.10;99.90;;;;;;6121696;23;20022;-69
2023/10/08 10:27:19;;;;;;;4.70;1.20;;;18.80;99.90;;;;;;6097156;23;20010;-70
2023/10/08 10:29:47;;;;;;;5.82;1.52;;;18.80;99.90;;;;;;6120378;23;20018;-70
2023/10/08 10:32:18;;;;;;;4.85;1.38;;;19.20;99.90;;;;;;6121688;23;20068;-70
2023/10/08 10:34:51;;;;;;;5.50;1.65;;;18.80;99.90;;;;;;6072963;23;20014;-70
2023/10/08 10:37:21;;;;;;;6.82;1.60;;;18.90;99.90;;;;;;6097580;23;20014;-69
2023/10/08 10:39:55;;;;;;;7.53;1.63;;;18.60;99.90;;;;;;6072099;23;20053;-69
2023/10/08 10:42:22;;;;;;;5.05;1.50;;;18.90;99.90;;;;;;6123124;23;20029;-70
2023/10/08 10:44:49;;;;;;;7.85;1.45;;;18.80;99.90;;;;;;6096532;23;20085;-69
2023/10/08 10:49:53;;;;;;;5.43;1.52;;;18.70;99.90;;;;;;6095696;23;20018;-69
2023/10/08 10:52:31;;;;;;;5.50;1.85;;;18.80;99.90;;;;;;6050644;23;20364;-70
2023/10/08 10:57:43;;;;;;;4.82;1.42;;;18.90;99.90;;;;;;6123271;23;20029;-70
2023/10/08 11:02:59;;;;;;;4.28;1.40;;;18.80;99.90;;;;;;6096928;23;20212;-71
2023/10/08 11:05:31;;;;;;;5.28;1.35;;;19.10;99.90;;;;;;6073035;23;20018;-70
2023/10/08 11:08:04;;;;;;;5.40;1.65;;;18.90;99.90;;;;;;6123351;23;20041;-70
2023/10/08 11:10:38;;;;;;;4.73;1.13;;;18.80;99.90;;;;;;6122922;23;20010;-70
2023/10/08 11:13:14;;;;;;;6.32;1.63;;;18.50;99.90;;;;;;6073169;23;20049;-70
2023/10/08 11:15:48;;;;;;;6.35;1.42;;;19.20;99.90;;;;;;6072803;23;20016;-70
2023/10/08 11:18:18;;;;;;;9.55;2.10;;;18.80;99.90;;;;;;6096868;23;20025;-70
2023/10/08 11:20:51;;;;;;;8.80;1.80;;;18.80;99.90;;;;;;6096789;23;20013;-70
2023/10/08 11:23:36;;;;;;;8.60;2.00;;;20.30;99.90;;;;;;6096059;23;20246;-70
2023/10/08 11:26:04;;;;;;;6.95;2.10;;;18.90;99.90;;;;;;6096979;23;20449;-70
2023/10/08 11:28:43;;;;;;;7.07;2.05;;;19.10;99.90;;;;;;6122968;23;20017;-70
2023/10/08 11:31:13;;;;;;;6.20;1.58;;;18.90;99.90;;;;;;6121011;23;20069;-70
2023/10/08 11:33:56;;;;;;;9.00;2.70;;;18.80;99.90;;;;;;6110956;23;20010;-70
2023/10/08 11:36:42;;;;;;;7.40;1.83;;;18.50;99.90;;;;;;6121244;23;20010;-70
2023/10/08 11:39:21;;;;;;;11.10;2.78;;;18.90;99.90;;;;;;6121860;23;20053;-70
2023/10/08 11:42:25;;;;;;;14.38;3.00;;;19.20;99.90;;;;;;6119485;23;20383;-71
2023/10/08 11:44:52;;;;;;;7.50;1.75;;;19.10;99.90;;;;;;6121564;23;20026;-70
2023/10/08 11:47:22;;;;;;;8.63;1.85;;;18.80;99.90;;;;;;6120843;23;20458;-70
2023/10/08 11:49:50;;;;;;;7.13;2.03;;;18.70;99.90;;;;;;6095894;23;20010;-70
2023/10/08 11:52:21;;;;;;;10.13;2.30;;;18.60;99.90;;;;;;6121889;23;20014;-70
2023/10/08 11:54:48;;;;;;;5.90;1.90;;;19.50;99.90;;;;;;6096854;23;20018;-70
2023/10/08 11:57:14;;;;;;;7.78;1.95;;;18.90;99.90;;;;;;6121394;23;20049;-70
2023/10/08 11:59:41;;;;;;;7.63;1.95;;;18.90;99.90;;;;;;6120312;23;20089;-70
2023/10/08 12:02:06;;;;;;;7.45;2.40;;;19.00;99.90;;;;;;6120703;23;20018;-70
2023/10/08 12:04:32;;;;;;;10.20;2.72;;;18.70;99.90;;;;;;6124707;23;20032;-70
2023/10/08 12:07:02;;;;;;;10.55;2.45;;;18.90;99.90;;;;;;6122630;23;20046;-70
2023/10/08 12:09:28;;;;;;;8.45;2.60;;;18.80;99.90;;;;;;6123973;23;20025;-70
2023/10/08 12:11:54;;;;;;;9.70;1.95;;;19.10;99.90;;;;;;6122846;23;20033;-71
2023/10/08 12:14:29;;;;;;;7.55;1.85;;;19.10;99.90;;;;;;6124692;23;20555;-70
2023/10/08 12:16:55;;;;;;;8.32;1.98;;;20.90;99.90;;;;;;6122592;23;20026;-71
2023/10/08 12:19:22;;;;;;;7.22;1.85;;;19.20;99.90;;;;;;6098357;23;20170;-71
2023/10/08 12:21:47;;;;;;;10.15;2.05;;;18.90;99.90;;;;;;6121610;23;20014;-71
2023/10/08 12:24:14;;;;;;;6.75;1.70;;;18.60;99.90;;;;;;6098323;23;20024;-70
2023/10/08 12:26:45;;;;;;;6.57;1.63;;;19.10;99.90;;;;;;6098341;23;20021;-71
2023/10/08 12:29:16;;;;;;;7.30;2.25;;;18.90;99.90;;;;;;6122385;23;20017;-72
2023/10/08 12:31:47;;;;;;;9.10;1.95;;;19.10;99.90;;;;;;6121494;23;20456;-72
2023/10/08 12:34:13;;;;;;;10.30;2.58;;;19.20;99.90;;;;;;6098417;23;20093;-72
2023/10/08 12:36:42;;;;;;;14.60;4.45;;;18.90;99.90;;;;;;6098117;23;20025;-72
2023/10/08 12:39:14;;;;;;;12.07;4.13;;;19.00;99.90;;;;;;6122315;23;20021;-72
2023/10/08 12:41:41;;;;;;;16.75;5.25;;;18.90;99.90;;;;;;6098077;23;20101;-71
2023/10/08 12:44:08;;;;;;;8.77;2.75;;;18.90;99.90;;;;;;6124560;23;20351;-71
2023/10/08 12:46:34;;;;;;;12.52;2.53;;;18.80;99.90;;;;;;6120300;23;20020;-72
2023/10/08 12:49:01;;;;;;;10.55;2.28;;;18.70;99.90;;;;;;6123392;23;20448;-72
2023/10/08 12:51:31;;;;;;;10.10;2.83;;;18.50;99.90;;;;;;6123770;23;20018;-71
2023/10/08 12:54:06;;;;;;;10.73;2.65;;;19.10;99.90;;;;;;6122481;23;20060;-71
2023/10/08 12:56:35;;;;;;;;;;;18.90;99.90;;;;;;6097613;23;20022;-71
2023/10/08 12:59:04;;;;;;;16.10;3.00;;;19.20;99.90;;;;;;6121871;23;19986;-71
2023/10/08 13:01:30;;;;;;;7.82;2.13;;;19.10;99.90;;;;;;6121818;23;20359;-71
2023/10/08 13:04:06;;;;;;;6.78;1.95;;;18.80;99.90;;;;;;6123749;23;20014;-71
2023/10/08 13:06:36;;;;;;;7.95;1.88;;;18.90;99.90;;;;;;6123839;23;20022;-71
2023/10/08 13:09:09;;;;;;;8.23;2.10;;;18.90;99.90;;;;;;6121893;23;20096;-71
2023/10/08 13:11:34;;;;;;;8.00;2.45;;;19.10;99.90;;;;;;6097937;23;20416;-71
2023/10/08 13:14:03;;;;;;;8.45;2.00;;;18.90;99.90;;;;;;6123010;23;20025;-71
2023/10/08 13:16:31;;;;;;;8.77;2.15;;;19.30;99.90;;;;;;6122086;23;20029;-71
2023/10/08 13:19:01;;;;;;;6.75;1.80;;;18.90;99.90;;;;;;6120497;23;20154;-71
2023/10/08 13:21:28;;;;;;;12.10;2.00;;;18.90;88.40;;;;;;6123494;23;20014;-71
2023/10/08 13:23:58;;;;;;;12.57;2.00;;;19.10;42.30;;;;;;6097485;23;20010;-71
2023/10/08 13:26:28;;;;;;;9.02;1.70;;;19.20;1.00;;;;;;6097962;23;20017;-72
2023/10/08 13:28:54;;;;;;;7.93;1.80;;;19.50;1.00;;;;;;6120910;23;20017;-72
2023/10/08 13:31:21;;;;;;;7.40;1.85;;;18.80;1.00;;;;;;6122096;23;20010;-71
2023/10/08 13:33:48;;;;;;;7.35;2.15;;;19.00;1.00;;;;;;6096960;23;20384;-71
2023/10/08 13:36:15;;;;;;;5.10;1.30;;;19.10;1.00;;;;;;6098052;23;20009;-71
2023/10/08 13:38:43;;;;;;;8.27;2.10;;;19.20;1.00;;;;;;6124146;23;20009;-72
2023/10/08 13:41:14;;;;;;;8.57;1.83;;;19.10;99.90;;;;;;6123747;23;20339;-71
2023/10/08 13:43:48;;;;;;;8.18;2.05;;;18.80;99.90;;;;;;6097868;23;20042;-71
2023/10/08 13:46:22;;;;;;;6.90;1.88;;;19.10;99.90;;;;;;6098062;23;20010;-71
2023/10/08 13:48:49;;;;;;;8.15;1.70;;;19.10;99.90;;;;;;6121240;23;20061;-72
2023/10/08 13:51:28;;;;;;;7.78;2.00;;;19.00;99.90;;;;;;6122182;23;20006;-71
2023/10/08 13:53:59;;;;;;;8.10;1.75;;;19.20;99.90;;;;;;6121836;23;20029;-71
2023/10/08 13:56:30;;;;;;;6.50;1.83;;;19.30;99.90;;;;;;6122369;23;20356;-71
2023/10/08 13:59:12;;;;;;;8.13;1.73;;;18.70;99.90;;;;;;6121462;23;20021;-71
2023/10/08 14:01:40;;;;;;;5.70;1.60;;;19.00;99.90;;;;;;6123807;23;20018;-71
2023/10/08 14:04:07;;;;;;;6.90;1.50;;;19.30;99.90;;;;;;6121362;23;20101;-71
2023/10/08 14:06:34;;;;;;;8.45;1.90;;;18.90;99.90;;;;;;6074047;23;20088;-72
2023/10/08 14:09:01;;;;;;;6.45;1.85;;;18.90;99.90;;;;;;6121518;23;20275;-72
2023/10/08 14:11:30;;;;;;;6.53;1.80;;;18.80;99.90;;;;;;6123721;23;20399;-71
2023/10/08 14:14:02;;;;;;;7.28;2.17;;;18.70;99.90;;;;;;6123559;23;20018;-71
2023/10/08 14:16:28;;;;;;;5.90;1.95;;;19.00;99.90;;;;;;6124022;23;20010;-71
2023/10/08 14:18:59;;;;;;;10.30;2.05;;;18.60;99.90;;;;;;6120936;23;20021;-71
2023/10/08 14:21:30;;;;;;;5.95;1.30;;;18.80;99.90;;;;;;6121891;23;20515;-71
2023/10/08 14:24:02;;;;;;;9.48;1.85;;;19.00;99.90;;;;;;6121486;23;20064;-71
2023/10/08 14:26:34;;;;;;;8.55;1.90;;;19.30;99.90;;;;;;6121383;23;20118;-71
2023/10/08 14:29:07;;;;;;;6.95;1.77;;;18.80;99.90;;;;;;6096851;23;20078;-71
2023/10/08 14:31:38;;;;;;;8.45;1.77;;;18.90;99.90;;;;;;6121512;23;20373;-71
2023/10/08 14:45:11;;;;;;;4.47;1.70;;;18.80;99.90;;;;;;6115274;23;20534;-71